sensor_id;sensor_type;location;lat;lon;timestamp;temperature;humidity
59067;DHT22;44854;50.838;4.438;2023-10-09T04:14:21;17.40;99.90
59067;DHT22;44854;50.838;4.438;2023-10-09T04:16:51;17.40;99.90
59067;DHT22;44854;50.838;4.438;2023-10-09T04:19:17;17.40;99.90
59067;DHT22;44854;50.838;4.438;2023-10-09T04:21:50;17.40;99.90
59067;DHT22;44854;50.838;4.438;2023-10-09T04:24:20;17.50;99.90
59067;DHT22;44854;50.838;4.438;2023-10-09T04:26:46;17.50;99.90
59067;DHT22;44854;50.838;4.438;2023-10-09T04:29:15;17.50;99.90
59067;DHT22;44854;50.838;4.438;2023-10-09T04:34:21;17.50;99.90
59067;DHT22;44854;50.838;4.438;2023-10-09T04:36:48;17.60;99.90
59067;DHT22;44854;50.838;4.438;2023-10-09T04:39:15;17.50;99.90
59067;DHT22;44854;50.838;4.438;2023-10-09T04:41:51;17.50;99.90
59067;DHT22;44854;50.838;4.438;2023-10-09T04:44:16;17.50;99.90
59067;DHT22;44854;50.838;4.438;2023-10-09T04:46:45;17.60;99.90
59067;DHT22;44854;50.838;4.438;2023-10-09T04:49:31;17.60;99.90
59067;DHT22;44854;50.838;4.438;2023-10-09T04:52:11;17.60;99.90
59067;DHT22;44854;50.838;4.438;2023-10-09T04:54:56;17.50;99.90
59067;DHT22;44854;50.838;4.438;2023-10-09T04:57:35;17.40;99.90
59067;DHT22;44854;50.838;4.438;2023-10-09T05:00:07;17.50;99.90
59067;DHT22;44854;50.838;4.438;2023-10-09T05:02:48;17.50;99.90
59067;DHT22;44854;50.838;4.438;2023-10-09T05:05:20;17.50;99.90
59067;DHT22;44854;50.838;4.438;2023-10-09T05:08:04;17.50;99.90
59067;DHT22;44854;50.838;4.438;2023-10-09T05:10:49;17.60;99.90
59067;DHT22;44854;50.838;4.438;2023-10-09T05:18:30;17.50;99.90
59067;DHT22;44854;50.838;4.438;2023-10-09T05:21:05;17.50;99.90
59067;DHT22;44854;50.838;4.438;2023-10-09T05:23:49;17.40;99.90
59067;DHT22;44854;50.838;4.438;2023-10-09T05:26:34;17.50;99.90
59067;DHT22;44854;50.838;4.438;2023-10-09T05:29:25;17.40;99.90
59067;DHT22;44854;50.838;4.438;2023-10-09T05:32:13;17.40;99.90
59067;DHT22;44854;50.838;4.438;2023-10-09T05:34:39;17.40;99.90
59067;DHT22;44854;50.838;4.438;2023-10-09T05:37:23;17.50;99.90
59067;DHT22;44854;50.838;4.438;2023-10-09T05:39:52;17.40;99.90
59067;DHT22;44854;50.838;4.438;2023-10-09T05:42:27;17.40;99.90
59067;DHT22;44854;50.838;4.438;2023-10-09T05:47:42;17.50;99.90
59067;DHT22;44854;50.838;4.438;2023-10-09T05:50:32;17.50;99.90
59067;DHT22;44854;50.838;4.438;2023-10-09T05:53:03;17.40;99.90
59067;DHT22;44854;50.838;4.438;2023-10-09T05:55:51;17.40;99.90
59067;DHT22;44854;50.838;4.438;2023-10-09T05:58:35;17.40;99.90
59067;DHT22;44854;50.838;4.438;2023-10-09T06:01:19;17.40;99.90
59067;DHT22;44854;50.838;4.438;2023-10-09T06:03:54;17.40;99.90
59067;DHT22;44854;50.838;4.438;2023-10-09T06:06:20;17.40;99.90
59067;DHT22;44854;50.838;4.438;2023-10-09T06:09:04;17.50;99.90
59067;DHT22;44854;50.838;4.438;2023-10-09T06:11:36;17.50;99.90
59067;DHT22;44854;50.838;4.438;2023-10-09T06:14:02;17.60;99.90
59067;DHT22;44854;50.838;4.438;2023-10-09T06:16:36;17.60;99.90
59067;DHT22;44854;50.838;4.438;2023-10-09T06:19:09;17.50;99.90
59067;DHT22;44854;50.838;4.438;2023-10-09T06:21:39;17.60;99.90
59067;DHT22;44854;50.838;4.438;2023-10-09T06:24:25;17.70;99.90
59067;DHT22;44854;50.838;4.438;2023-10-09T06:26:59;17.70;99.90
59067;DHT22;44854;50.838;4.438;2023-10-09T06:29:27;17.60;99.90
59067;DHT22;44854;50.838;4.438;2023-10-09T06:34:44;17.50;99.90
59067;DHT22;44854;50.838;4.438;2023-10-09T06:37:11;17.50;99.90
59067;DHT22;44854;50.838;4.438;2023-10-09T06:39:59;17.40;99.90
59067;DHT22;44854;50.838;4.438;2023-10-09T06:42:25;17.50;99.90
59067;DHT22;44854;50.838;4.438;2023-10-09T06:45:07;17.50;99.90
59067;DHT22;44854;50.838;4.438;2023-10-09T06:47:35;17.40;99.90
59067;DHT22;44854;50.838;4.438;2023-10-09T06:52:58;17.40;99.90
59067;DHT22;44854;50.838;4.438;2023-10-09T06:55:35;17.50;99.90
59067;DHT22;44854;50.838;4.438;2023-10-09T06:58:14;17.50;99.90
59067;DHT22;44854;50.838;4.438;2023-10-09T07:00:48;17.50;99.90
59067;DHT22;44854;50.838;4.438;2023-10-09T07:03:20;17.60;99.90
59067;DHT22;44854;50.838;4.438;2023-10-09T07:06:07;17.70;99.90
59067;DHT22;44854;50.838;4.438;2023-10-09T07:08:58;17.70;99.90
59067;DHT22;44854;50.838;4.438;2023-10-09T07:11:32;17.80;99.90
59067;DHT22;44854;50.838;4.438;2023-10-09T07:16:32;17.80;99.90
59067;DHT22;44854;50.838;4.438;2023-10-09T07:19:04;17.90;99.90
59067;DHT22;44854;50.838;4.438;2023-10-09T07:21:50;18.00;99.90
59067;DHT22;44854;50.838;4.438;2023-10-09T07:24:20;18.00;99.90
59067;DHT22;44854;50.838;4.438;2023-10-09T07:26:50;18.00;99.90
59067;DHT22;44854;50.838;4.438;2023-10-09T07:29:21;18.10;99.90
59067;DHT22;44854;50.838;4.438;2023-10-09T07:31:51;18.00;99.90
59067;DHT22;44854;50.838;4.438;2023-10-09T07:34:25;18.00;99.90
59067;DHT22;44854;50.838;4.438;2023-10-09T07:36:57;18.10;99.90
59067;DHT22;44854;50.838;4.438;2023-10-09T07:39:30;18.00;99.90
59067;DHT22;44854;50.838;4.438;2023-10-09T07:42:04;18.00;99.90
59067;DHT22;44854;50.838;4.438;2023-10-09T07:44:51;18.10;99.90
59067;DHT22;44854;50.838;4.438;2023-10-09T07:47:21;18.20;99.90
59067;DHT22;44854;50.838;4.438;2023-10-09T07:50:09;18.30;99.90
59067;DHT22;44854;50.838;4.438;2023-10-09T07:52:36;18.30;99.90
59067;DHT22;44854;50.838;4.438;2023-10-09T07:55:09;18.30;99.90
59067;DHT22;44854;50.838;4.438;2023-10-09T07:57:51;18.50;99.90
59067;DHT22;44854;50.838;4.438;2023-10-09T08:00:17;18.60;99.90
59067;DHT22;44854;50.838;4.438;2023-10-09T08:03:15;18.90;99.90
59067;DHT22;44854;50.838;4.438;2023-10-09T08:05:50;18.90;99.90
59067;DHT22;44854;50.838;4.438;2023-10-09T08:08:32;18.80;99.90
59067;DHT22;44854;50.838;4.438;2023-10-09T08:10:58;18.70;99.90
59067;DHT22;44854;50.838;4.438;2023-10-09T08:13:44;18.80;99.90
59067;DHT22;44854;50.838;4.438;2023-10-09T08:16:25;18.90;99.90
59067;DHT22;44854;50.838;4.438;2023-10-09T08:19:04;18.90;99.90
59067;DHT22;44854;50.838;4.438;2023-10-09T08:21:48;19.00;99.90
59067;DHT22;44854;50.838;4.438;2023-10-09T08:24:34;19.00;99.90
59067;DHT22;44854;50.838;4.438;2023-10-09T08:27:07;18.90;99.90
59067;DHT22;44854;50.838;4.438;2023-10-09T08:29:51;19.00;99.90
59067;DHT22;44854;50.838;4.438;2023-10-09T08:32:36;18.90;99.90
59067;DHT22;44854;50.838;4.438;2023-10-09T08:35:06;18.80;99.90
59067;DHT22;44854;50.838;4.438;2023-10-09T08:37:51;18.90;99.90
59067;DHT22;44854;50.838;4.438;2023-10-09T08:40:19;18.90;99.90
59067;DHT22;44854;50.838;4.438;2023-10-09T08:42:47;19.10;99.90
59067;DHT22;44854;50.838;4.438;2023-10-09T08:45:15;19.20;99.90
59067;DHT22;44854;50.838;4.438;2023-10-09T08:47:42;19.00;99.90
59067;DHT22;44854;50.838;4.438;2023-10-09T08:50:07;19.00;99.90
59067;DHT22;44854;50.838;4.438;2023-10-09T08:52:38;19.10;99.90
59067;DHT22;44854;50.838;4.438;2023-10-09T08:55:04;19.10;99.90
59067;DHT22;44854;50.838;4.438;2023-10-09T08:57:31;19.10;99.90
59067;DHT22;44854;50.838;4.438;2023-10-09T08:59:56;18.90;99.90
59067;DHT22;44854;50.838;4.438;2023-10-09T09:02:22;19.10;99.90
59067;DHT22;44854;50.838;4.438;2023-10-09T09:04:48;19.10;99.90
59067;DHT22;44854;50.838;4.438;2023-10-09T09:07:25;19.20;99.90
59067;DHT22;44854;50.838;4.438;2023-10-09T09:09:58;19.30;99.90
59067;DHT22;44854;50.838;4.438;2023-10-09T09:12:29;19.50;99.90
59067;DHT22;44854;50.838;4.438;2023-10-09T09:14:57;19.60;99.90
59067;DHT22;44854;50.838;4.438;2023-10-09T09:17:23;19.70;99.90
59067;DHT22;44854;50.838;4.438;2023-10-09T09:19:52;19.90;99.90
59067;DHT22;44854;50.838;4.438;2023-10-09T09:22:19;20.00;99.90
59067;DHT22;44854;50.838;4.438;2023-10-09T09:24:56;20.20;99.90
59067;DHT22;44854;50.838;4.438;2023-10-09T09:27:43;20.10;99.90
59067;DHT22;44854;50.838;4.438;2023-10-09T09:30:27;20.10;99.90
59067;DHT22;44854;50.838;4.438;2023-10-09T09:36:07;20.00;99.90
59067;DHT22;44854;50.838;4.438;2023-10-09T09:38:36;20.00;99.90
59067;DHT22;44854;50.838;4.438;2023-10-09T09:41:15;20.00;99.90
59067;DHT22;44854;50.838;4.438;2023-10-09T09:43:51;20.00;99.90
59067;DHT22;44854;50.838;4.438;2023-10-09T09:46:17;19.90;99.90
59067;DHT22;44854;50.838;4.438;2023-10-09T09:48:43;20.00;99.90
59067;DHT22;44854;50.838;4.438;2023-10-09T09:51:12;20.10;99.90
59067;DHT22;44854;50.838;4.438;2023-10-09T09:53:39;20.20;99.90
59067;DHT22;44854;50.838;4.438;2023-10-09T09:56:06;20.20;99.90
59067;DHT22;44854;50.838;4.438;2023-10-09T09:58:32;20.30;99.90
59067;DHT22;44854;50.838;4.438;2023-10-09T10:01:08;20.20;99.90
59067;DHT22;44854;50.838;4.438;2023-10-09T10:03:45;20.20;99.90
59067;DHT22;44854;50.838;4.438;2023-10-09T10:06:12;20.30;99.90
59067;DHT22;44854;50.838;4.438;2023-10-09T10:08:41;20.40;99.90
59067;DHT22;44854;50.838;4.438;2023-10-09T10:11:07;20.40;99.90
59067;DHT22;44854;50.838;4.438;2023-10-09T10:16:13;20.20;99.90
59067;DHT22;44854;50.838;4.438;2023-10-09T10:18:57;20.30;99.90
59067;DHT22;44854;50.838;4.438;2023-10-09T10:21:33;20.20;99.90
59067;DHT22;44854;50.838;4.438;2023-10-09T10:24:38;20.20;99.90
59067;DHT22;44854;50.838;4.438;2023-10-09T10:27:14;20.00;99.90
59067;DHT22;44854;50.838;4.438;2023-10-09T10:35:51;20.40;99.90
59067;DHT22;44854;50.838;4.438;2023-10-09T10:38:23;20.70;99.90
59067;DHT22;44854;50.838;4.438;2023-10-09T10:40:50;20.80;99.90
59067;DHT22;44854;50.838;4.438;2023-10-09T10:43:26;20.70;99.90
59067;DHT22;44854;50.838;4.438;2023-10-09T10:46:13;20.80;99.90
59067;DHT22;44854;50.838;4.438;2023-10-09T10:48:52;20.70;99.90
59067;DHT22;44854;50.838;4.438;2023-10-09T10:51:38;20.80;99.90
59067;DHT22;44854;50.838;4.438;2023-10-09T10:54:04;20.80;99.90
59067;DHT22;44854;50.838;4.438;2023-10-09T10:56:48;20.90;99.90
59067;DHT22;44854;50.838;4.438;2023-10-09T10:59:14;21.00;99.90
59067;DHT22;44854;50.838;4.438;2023-10-09T11:01:50;21.20;99.90
59067;DHT22;44854;50.838;4.438;2023-10-09T11:04:19;21.10;99.90
59067;DHT22;44854;50.838;4.438;2023-10-09T11:06:57;21.20;99.90
59067;DHT22;44854;50.838;4.438;2023-10-09T11:15:10;21.20;99.90
59067;DHT22;44854;50.838;4.438;2023-10-09T11:18:00;21.40;99.90
59067;DHT22;44854;50.838;4.438;2023-10-09T11:20:33;21.50;99.90
59067;DHT22;44854;50.838;4.438;2023-10-09T11:22:59;21.80;99.90
59067;DHT22;44854;50.838;4.438;2023-10-09T11:25:40;21.90;99.90
59067;DHT22;44854;50.838;4.438;2023-10-09T11:28:22;22.00;99.90
59067;DHT22;44854;50.838;4.438;2023-10-09T11:31:10;22.10;99.90
59067;DHT22;44854;50.838;4.438;2023-10-09T11:33:52;22.10;99.90
59067;DHT22;44854;50.838;4.438;2023-10-09T11:36:18;22.20;99.90
59067;DHT22;44854;50.838;4.438;2023-10-09T11:39:04;22.10;99.90
59067;DHT22;44854;50.838;4.438;2023-10-09T11:41:43;21.90;99.90
59067;DHT22;44854;50.838;4.438;2023-10-09T11:44:09;21.80;99.90
59067;DHT22;44854;50.838;4.438;2023-10-09T11:46:58;21.90;99.90
59067;DHT22;44854;50.838;4.438;2023-10-09T11:49:47;22.00;99.90
59067;DHT22;44854;50.838;4.438;2023-10-09T11:52:13;22.10;99.90
59067;DHT22;44854;50.838;4.438;2023-10-09T11:54:39;22.30;99.90
59067;DHT22;44854;50.838;4.438;2023-10-09T11:57:05;22.30;99.90
59067;DHT22;44854;50.838;4.438;2023-10-09T11:59:31;22.40;99.90
59067;DHT22;44854;50.838;4.438;2023-10-09T12:02:04;22.30;99.90
59067;DHT22;44854;50.838;4.438;2023-10-09T12:04:29;22.30;99.90
59067;DHT22;44854;50.838;4.438;2023-10-09T12:06:56;22.30;99.90
59067;DHT22;44854;50.838;4.438;2023-10-09T12:09:34;22.20;99.90
59067;DHT22;44854;50.838;4.438;2023-10-09T12:12:03;22.20;99.90
59067;DHT22;44854;50.838;4.438;2023-10-09T12:14:30;22.10;99.90
59067;DHT22;44854;50.838;4.438;2023-10-09T12:17:08;22.20;99.90
59067;DHT22;44854;50.838;4.438;2023-10-09T12:19:33;22.20;99.90
59067;DHT22;44854;50.838;4.438;2023-10-09T12:22:00;22.00;99.90
59067;DHT22;44854;50.838;4.438;2023-10-09T12:24:26;22.10;99.90
59067;DHT22;44854;50.838;4.438;2023-10-09T12:26:52;22.20;99.90
59067;DHT22;44854;50.838;4.438;2023-10-09T12:29:18;22.20;99.90
59067;DHT22;44854;50.838;4.438;2023-10-09T12:31:45;22.30;99.90
59067;DHT22;44854;50.838;4.438;2023-10-09T12:34:10;22.30;99.90
59067;DHT22;44854;50.838;4.438;2023-10-09T12:36:42;22.20;99.90
59067;DHT22;44854;50.838;4.438;2023-10-09T12:39:09;22.50;99.90
59067;DHT22;44854;50.838;4.438;2023-10-09T12:41:43;22.80;99.90
59067;DHT22;44854;50.838;4.438;2023-10-09T12:44:09;22.90;99.90
59067;DHT22;44854;50.838;4.438;2023-10-09T12:46:43;23.00;99.90
59067;DHT22;44854;50.838;4.438;2023-10-09T12:49:20;22.90;99.90
59067;DHT22;44854;50.838;4.438;2023-10-09T12:51:52;22.80;99.90
59067;DHT22;44854;50.838;4.438;2023-10-09T12:54:18;22.70;99.90
59067;DHT22;44854;50.838;4.438;2023-10-09T12:56:45;22.80;99.90
59067;DHT22;44854;50.838;4.438;2023-10-09T12:59:14;22.80;99.90
59067;DHT22;44854;50.838;4.438;2023-10-09T13:01:40;22.60;99.90
59067;DHT22;44854;50.838;4.438;2023-10-09T13:04:09;22.50;99.90
59067;DHT22;44854;50.838;4.438;2023-10-09T13:06:39;22.60;99.90
59067;DHT22;44854;50.838;4.438;2023-10-09T13:09:14;22.60;99.90
59067;DHT22;44854;50.838;4.438;2023-10-09T13:11:40;22.60;99.90
59067;DHT22;44854;50.838;4.438;2023-10-09T13:14:06;22.70;99.90
59067;DHT22;44854;50.838;4.438;2023-10-09T13:16:47;22.80;99.90
59067;DHT22;44854;50.838;4.438;2023-10-09T13:19:15;22.70;99.90
59067;DHT22;44854;50.838;4.438;2023-10-09T13:21:42;22.70;99.90
59067;DHT22;44854;50.838;4.438;2023-10-09T13:24:13;22.70;99.90
59067;DHT22;44854;50.838;4.438;2023-10-09T13:26:45;22.70;99.90
59067;DHT22;44854;50.838;4.438;2023-10-09T13:29:12;22.70;99.90
59067;DHT22;44854;50.838;4.438;2023-10-09T13:31:38;22.40;99.90
59067;DHT22;44854;50.838;4.438;2023-10-09T13:34:12;22.30;99.90
59067;DHT22;44854;50.838;4.438;2023-10-09T13:36:40;22.30;99.90
59067;DHT22;44854;50.838;4.438;2023-10-09T13:39:10;22.40;99.90
59067;DHT22;44854;50.838;4.438;2023-10-09T13:41:52;22.50;99.90
59067;DHT22;44854;50.838;4.438;2023-10-09T13:44:30;22.80;99.90
59067;DHT22;44854;50.838;4.438;2023-10-09T13:46:56;23.10;99.90
59067;DHT22;44854;50.838;4.438;2023-10-09T13:49:22;23.10;99.90
59067;DHT22;44854;50.838;4.438;2023-10-09T13:51:48;22.80;99.90
59067;DHT22;44854;50.838;4.438;2023-10-09T13:54:15;22.70;99.90
59067;DHT22;44854;50.838;4.438;2023-10-09T13:57:08;22.70;99.90
59067;DHT22;44854;50.838;4.438;2023-10-09T13:59:36;22.70;99.90
59067;DHT22;44854;50.838;4.438;2023-10-09T14:02:02;22.60;99.90
59067;DHT22;44854;50.838;4.438;2023-10-09T14:04:34;22.60;99.90
59067;DHT22;44854;50.838;4.438;2023-10-09T14:07:00;22.60;99.90
59067;DHT22;44854;50.838;4.438;2023-10-09T14:09:27;22.70;99.90
59067;DHT22;44854;50.838;4.438;2023-10-09T14:12:10;22.40;99.90
59067;DHT22;44854;50.838;4.438;2023-10-09T14:17:15;22.80;99.90
59067;DHT22;44854;50.838;4.438;2023-10-09T14:19:47;22.90;99.90
59067;DHT22;44854;50.838;4.438;2023-10-09T14:22:13;22.90;99.90
59067;DHT22;44854;50.838;4.438;2023-10-09T14:24:41;22.90;99.90
59067;DHT22;44854;50.838;4.438;2023-10-09T14:27:10;22.60;99.90
59067;DHT22;44854;50.838;4.438;2023-10-09T14:29:46;22.50;99.90
59067;DHT22;44854;50.838;4.438;2023-10-09T14:32:12;22.70;99.90
59067;DHT22;44854;50.838;4.438;2023-10-09T14:34:41;22.60;99.90
59067;DHT22;44854;50.838;4.438;2023-10-09T14:37:11;22.80;99.90
59067;DHT22;44854;50.838;4.438;2023-10-09T14:39:43;22.90;99.90
59067;DHT22;44854;50.838;4.438;2023-10-09T14:42:16;22.90;99.90
59067;DHT22;44854;50.838;4.438;2023-10-09T14:44:42;22.80;99.90
59067;DHT22;44854;50.838;4.438;2023-10-09T14:47:10;22.80;99.90
59067;DHT22;44854;50.838;4.438;2023-10-09T14:49:36;22.90;99.90
59067;DHT22;44854;50.838;4.438;2023-10-09T14:52:09;22.80;99.90
59067;DHT22;44854;50.838;4.438;2023-10-09T14:54:35;22.70;99.90
59067;DHT22;44854;50.838;4.438;2023-10-09T14:57:01;22.70;99.90
59067;DHT22;44854;50.838;4.438;2023-10-09T14:59:34;22.80;99.90
59067;DHT22;44854;50.838;4.438;2023-10-09T15:02:00;22.80;99.90
59067;DHT22;44854;50.838;4.438;2023-10-09T15:04:26;22.90;99.90
59067;DHT22;44854;50.838;4.438;2023-10-09T15:06:52;22.80;99.90
59067;DHT22;44854;50.838;4.438;2023-10-09T15:09:18;22.70;99.90
59067;DHT22;44854;50.838;4.438;2023-10-09T15:11:48;22.40;99.90
59067;DHT22;44854;50.838;4.438;2023-10-09T15:14:14;22.50;99.90
59067;DHT22;44854;50.838;4.438;2023-10-09T15:16:39;22.70;99.90
59067;DHT22;44854;50.838;4.438;2023-10-09T15:19:08;22.80;99.90
59067;DHT22;44854;50.838;4.438;2023-10-09T15:21:36;23.00;99.90
59067;DHT22;44854;50.838;4.438;2023-10-09T15:24:12;22.90;99.90
59067;DHT22;44854;50.838;4.438;2023-10-09T15:26:44;22.80;99.90
59067;DHT22;44854;50.838;4.438;2023-10-09T15:29:20;22.60;99.90
59067;DHT22;44854;50.838;4.438;2023-10-09T15:31:56;22.60;99.90
59067;DHT22;44854;50.838;4.438;2023-10-09T15:34:23;22.60;99.90
59067;DHT22;44854;50.838;4.438;2023-10-09T15:36:50;22.40;99.90
59067;DHT22;44854;50.838;4.438;2023-10-09T15:39:15;22.50;99.90
59067;DHT22;44854;50.838;4.438;2023-10-09T15:41:47;22.60;99.90
59067;DHT22;44854;50.838;4.438;2023-10-09T15:44:12;22.60;99.90
59067;DHT22;44854;50.838;4.438;2023-10-09T15:46:41;22.60;99.90
59067;DHT22;44854;50.838;4.438;2023-10-09T15:49:10;22.40;99.90
59067;DHT22;44854;50.838;4.438;2023-10-09T15:51:38;22.40;99.90
59067;DHT22;44854;50.838;4.438;2023-10-09T15:54:04;22.40;99.90
59067;DHT22;44854;50.838;4.438;2023-10-09T15:56:29;22.40;99.90
59067;DHT22;44854;50.838;4.438;2023-10-09T15:58:55;22.20;99.90
59067;DHT22;44854;50.838;4.438;2023-10-09T16:01:21;22.20;99.90
59067;DHT22;44854;50.838;4.438;2023-10-09T16:03:47;22.20;99.90
59067;DHT22;44854;50.838;4.438;2023-10-09T16:06:14;22.30;99.90
59067;DHT22;44854;50.838;4.438;2023-10-09T16:08:45;22.20;99.90
59067;DHT22;44854;50.838;4.438;2023-10-09T16:11:11;22.20;99.90
59067;DHT22;44854;50.838;4.438;2023-10-09T16:13:38;22.20;99.90
59067;DHT22;44854;50.838;4.438;2023-10-09T16:16:04;22.00;99.90
59067;DHT22;44854;50.838;4.438;2023-10-09T16:18:33;22.10;99.90
59067;DHT22;44854;50.838;4.438;2023-10-09T16:20:59;21.90;99.90
59067;DHT22;44854;50.838;4.438;2023-10-09T16:23:29;21.80;99.90
59067;DHT22;44854;50.838;4.438;2023-10-09T16:25:56;21.80;99.90
59067;DHT22;44854;50.838;4.438;2023-10-09T16:28:22;21.70;99.90
59067;DHT22;44854;50.838;4.438;2023-10-09T16:30:48;21.60;99.90
59067;DHT22;44854;50.838;4.438;2023-10-09T16:33:13;21.60;99.90
59067;DHT22;44854;50.838;4.438;2023-10-09T16:35:41;21.40;99.90
59067;DHT22;44854;50.838;4.438;2023-10-09T16:38:09;21.50;99.90
59067;DHT22;44854;50.838;4.438;2023-10-09T16:40:40;21.50;99.90
59067;DHT22;44854;50.838;4.438;2023-10-09T16:43:12;21.50;99.90
59067;DHT22;44854;50.838;4.438;2023-10-09T16:45:39;21.60;99.90
59067;DHT22;44854;50.838;4.438;2023-10-09T16:48:09;21.50;99.90
59067;DHT22;44854;50.838;4.438;2023-10-09T16:50:35;21.50;99.90
59067;DHT22;44854;50.838;4.438;2023-10-09T16:53:01;21.30;99.90
59067;DHT22;44854;50.838;4.438;2023-10-09T16:55:29;21.30;99.90
59067;DHT22;44854;50.838;4.438;2023-10-09T16:57:55;21.00;99.90
59067;DHT22;44854;50.838;4.438;2023-10-09T17:00:22;21.00;99.90
59067;DHT22;44854;50.838;4.438;2023-10-09T17:02:56;20.80;99.90
59067;DHT22;44854;50.838;4.438;2023-10-09T17:05:22;20.80;99.90
59067;DHT22;44854;50.838;4.438;2023-10-09T17:07:58;20.70;99.90
59067;DHT22;44854;50.838;4.438;2023-10-09T17:10:25;20.60;99.90
59067;DHT22;44854;50.838;4.438;2023-10-09T17:12:54;20.70;99.90
59067;DHT22;44854;50.838;4.438;2023-10-09T17:15:20;20.50;99.90
59067;DHT22;44854;50.838;4.438;2023-10-09T17:17:46;20.40;99.90
59067;DHT22;44854;50.838;4.438;2023-10-09T17:20:15;20.30;99.90
59067;DHT22;44854;50.838;4.438;2023-10-09T17:22:41;20.30;99.90
59067;DHT22;44854;50.838;4.438;2023-10-09T17:25:08;20.20;99.90
59067;DHT22;44854;50.838;4.438;2023-10-09T17:27:38;20.10;99.90
59067;DHT22;44854;50.838;4.438;2023-10-09T17:30:04;19.90;99.90
59067;DHT22;44854;50.838;4.438;2023-10-09T17:32:30;19.80;99.90
59067;DHT22;44854;50.838;4.438;2023-10-09T17:34:57;19.70;99.90
59067;DHT22;44854;50.838;4.438;2023-10-09T17:37:23;19.60;99.90
59067;DHT22;44854;50.838;4.438;2023-10-09T17:39:48;19.60;99.90
59067;DHT22;44854;50.838;4.438;2023-10-09T17:42:14;19.60;99.90
59067;DHT22;44854;50.838;4.438;2023-10-09T17:44:40;19.60;99.90
59067;DHT22;44854;50.838;4.438;2023-10-09T17:47:05;19.50;99.90
59067;DHT22;44854;50.838;4.438;2023-10-09T17:49:31;19.50;99.90
59067;DHT22;44854;50.838;4.438;2023-10-09T17:51:56;19.20;99.90
59067;DHT22;44854;50.838;4.438;2023-10-09T17:54:25;19.20;99.90
59067;DHT22;44854;50.838;4.438;2023-10-09T17:56:53;19.20;99.90
59067;DHT22;44854;50.838;4.438;2023-10-09T17:59:21;19.20;99.90
59067;DHT22;44854;50.838;4.438;2023-10-09T18:01:46;19.10;99.90
59067;DHT22;44854;50.838;4.438;2023-10-09T18:04:12;19.00;99.90
59067;DHT22;44854;50.838;4.438;2023-10-09T18:06:39;19.00;99.90
59067;DHT22;44854;50.838;4.438;2023-10-09T18:09:05;19.00;99.90
59067;DHT22;44854;50.838;4.438;2023-10-09T18:11:41;19.00;99.90
59067;DHT22;44854;50.838;4.438;2023-10-09T18:14:07;18.90;99.90
59067;DHT22;44854;50.838;4.438;2023-10-09T18:16:33;18.90;99.90
59067;DHT22;44854;50.838;4.438;2023-10-09T18:18:58;18.80;99.90
59067;DHT22;44854;50.838;4.438;2023-10-09T18:21:26;18.70;99.90
59067;DHT22;44854;50.838;4.438;2023-10-09T18:23:52;18.70;99.90
59067;DHT22;44854;50.838;4.438;2023-10-09T18:26:21;18.70;99.90
59067;DHT22;44854;50.838;4.438;2023-10-09T18:28:51;18.60;99.90
59067;DHT22;44854;50.838;4.438;2023-10-09T18:31:16;18.60;99.90
59067;DHT22;44854;50.838;4.438;2023-10-09T18:33:46;18.60;99.90
59067;DHT22;44854;50.838;4.438;2023-10-09T18:36:11;18.50;99.90
59067;DHT22;44854;50.838;4.438;2023-10-09T18:38:37;18.60;99.90
59067;DHT22;44854;50.838;4.438;2023-10-09T18:41:10;18.60;99.90
59067;DHT22;44854;50.838;4.438;2023-10-09T18:43:38;18.70;99.90
59067;DHT22;44854;50.838;4.438;2023-10-09T18:46:07;18.60;99.90
59067;DHT22;44854;50.838;4.438;2023-10-09T18:48:35;18.60;99.90
59067;DHT22;44854;50.838;4.438;2023-10-09T18:51:01;18.60;99.90
59067;DHT22;44854;50.838;4.438;2023-10-09T18:53:27;18.50;99.90
59067;DHT22;44854;50.838;4.438;2023-10-09T18:55:55;18.60;99.90
59067;DHT22;44854;50.838;4.438;2023-10-09T18:58:21;18.50;99.90
59067;DHT22;44854;50.838;4.438;2023-10-09T19:00:48;18.50;99.90
59067;DHT22;44854;50.838;4.438;2023-10-09T19:03:18;18.40;99.90
59067;DHT22;44854;50.838;4.438;2023-10-09T19:05:46;18.40;99.90
59067;DHT22;44854;50.838;4.438;2023-10-09T19:08:12;18.30;99.90
59067;DHT22;44854;50.838;4.438;2023-10-09T19:10:38;18.30;99.90
59067;DHT22;44854;50.838;4.438;2023-10-09T19:13:09;18.30;99.90
59067;DHT22;44854;50.838;4.438;2023-10-09T19:15:38;18.30;99.90
59067;DHT22;44854;50.838;4.438;2023-10-09T19:18:05;18.30;99.90
59067;DHT22;44854;50.838;4.438;2023-10-09T19:20:40;18.10;99.90
59067;DHT22;44854;50.838;4.438;2023-10-09T19:23:08;18.10;99.90
59067;DHT22;44854;50.838;4.438;2023-10-09T19:25:34;18.10;99.90
59067;DHT22;44854;50.838;4.438;2023-10-09T19:28:02;18.00;99.90
59067;DHT22;44854;50.838;4.438;2023-10-09T19:30:28;17.90;99.90
59067;DHT22;44854;50.838;4.438;2023-10-09T19:32:56;17.90;99.90
59067;DHT22;44854;50.838;4.438;2023-10-09T19:35:25;17.80;99.90
59067;DHT22;44854;50.838;4.438;2023-10-09T19:37:50;17.80;99.90
59067;DHT22;44854;50.838;4.438;2023-10-09T19:40:16;17.70;99.90
59067;DHT22;44854;50.838;4.438;2023-10-09T19:42:42;17.70;99.90
59067;DHT22;44854;50.838;4.438;2023-10-09T19:45:08;17.60;99.90
59067;DHT22;44854;50.838;4.438;2023-10-09T19:47:42;17.60;99.90
59067;DHT22;44854;50.838;4.438;2023-10-09T19:50:08;17.60;99.90
59067;DHT22;44854;50.838;4.438;2023-10-09T19:52:38;17.60;99.90
59067;DHT22;44854;50.838;4.438;2023-10-09T19:55:05;17.60;99.90
59067;DHT22;44854;50.838;4.438;2023-10-09T19:57:34;17.50;99.90
59067;DHT22;44854;50.838;4.438;2023-10-09T19:59:59;17.50;99.90
59067;DHT22;44854;50.838;4.438;2023-10-09T20:02:28;17.50;99.90
59067;DHT22;44854;50.838;4.438;2023-10-09T20:04:53;17.60;99.90
59067;DHT22;44854;50.838;4.438;2023-10-09T20:07:19;17.50;99.90
59067;DHT22;44854;50.838;4.438;2023-10-09T20:09:44;17.50;99.90
59067;DHT22;44854;50.838;4.438;2023-10-09T20:12:14;17.50;99.90
59067;DHT22;44854;50.838;4.438;2023-10-09T20:14:39;17.50;99.90
59067;DHT22;44854;50.838;4.438;2023-10-09T20:17:05;17.50;99.90
59067;DHT22;44854;50.838;4.438;2023-10-09T20:19:31;17.40;99.90
59067;DHT22;44854;50.838;4.438;2023-10-09T20:21:56;17.30;99.90
59067;DHT22;44854;50.838;4.438;2023-10-09T20:24:22;17.30;99.90
59067;DHT22;44854;50.838;4.438;2023-10-09T20:26:50;17.30;99.90
59067;DHT22;44854;50.838;4.438;2023-10-09T20:29:16;17.20;99.90
59067;DHT22;44854;50.838;4.438;2023-10-09T20:31:42;17.30;99.90
59067;DHT22;44854;50.838;4.438;2023-10-09T20:34:13;17.30;99.90
59067;DHT22;44854;50.838;4.438;2023-10-09T20:36:39;17.10;99.90
59067;DHT22;44854;50.838;4.438;2023-10-09T20:39:07;17.10;99.90
59067;DHT22;44854;50.838;4.438;2023-10-09T20:41:41;17.00;99.90
59067;DHT22;44854;50.838;4.438;2023-10-09T20:44:06;17.00;99.90
59067;DHT22;44854;50.838;4.438;2023-10-09T20:46:36;17.00;99.90